Time;durP1;ratioP1;P1;durP2;ratioP2;P2;SDS_P1;SDS_P2;PMS_P1;PMS_P2;Temp;Humidity;BMP_temperature;BMP_pressure;BME280_temperature;BME280_humidity;BME280_pressure;Samples;Min_cycle;Max_cycle;Signal;HPM_P1;HPM_P2
2022/02/01 00:01:59;;;;;;;116.90;32.27;;;0.00;1.00;;;;;;4470213;27;657498;-69
2022/02/01 00:04:57;;;;;;;126.90;31.90;;;0.00;1.00;;;;;;4456558;27;658320;-69
2022/02/01 00:07:53;;;;;;;108.43;31.13;;;0.00;1.00;;;;;;4467358;27;657875;-69
2022/02/01 00:10:50;;;;;;;121.33;33.53;;;0.00;1.00;;;;;;4448937;27;658491;-69
2022/02/01 00:13:46;;;;;;;126.10;34.47;;;0.00;1.00;;;;;;4479623;27;657815;-69
2022/02/01 00:38:11;;;;;;;121.47;32.03;;;-0.10;1.00;;;;;;4437796;27;660896;-69
2022/02/01 00:41:04;;;;;;;104.63;31.27;;;-0.10;1.00;;;;;;4465384;27;659384;-69
2022/02/01 00:43:51;;;;;;;114.53;31.10;;;-0.10;1.00;;;;;;4435595;27;659134;-69
2022/02/01 00:46:39;;;;;;;107.60;29.70;;;-0.10;1.00;;;;;;4497109;27;660802;-69
2022/02/01 00:49:29;;;;;;;110.50;28.40;;;-0.10;1.00;;;;;;4472744;27;659903;-69
2022/02/01 00:52:17;;;;;;;105.10;29.63;;;-0.10;1.00;;;;;;4472437;27;658494;-68
2022/02/01 00:55:05;;;;;;;113.47;30.23;;;-0.10;1.00;;;;;;4494065;27;658745;-68
2022/02/01 00:57:52;;;;;;;100.80;28.37;;;-0.10;1.00;;;;;;4472397;27;660118;-69
2022/02/01 01:00:40;;;;;;;99.50;28.27;;;-0.10;1.00;;;;;;4489690;27;658411;-68
2022/02/01 01:03:27;;;;;;;103.00;27.73;;;-0.10;1.00;;;;;;4468882;27;659098;-69
2022/02/01 01:06:17;;;;;;;114.03;28.13;;;-0.10;1.00;;;;;;4496689;27;658867;-68
2022/02/01 01:09:04;;;;;;;98.20;27.60;;;-0.10;1.00;;;;;;4465428;27;659070;-68
2022/02/01 01:11:55;;;;;;;94.57;27.27;;;-0.10;1.00;;;;;;4482139;27;658150;-68
2022/02/01 01:15:10;;;;;;;102.90;28.00;;;-0.10;1.00;;;;;;4472458;27;658891;-69
2022/02/01 01:55:28;;;;;;;89.23;26.23;;;-0.10;1.00;;;;;;4330833;28;657739;-70
2022/02/01 01:58:16;;;;;;;100.27;25.67;;;-0.20;1.00;;;;;;4356608;28;657852;-70
2022/02/01 02:01:11;;;;;;;100.87;26.10;;;-0.10;1.00;;;;;;4371255;28;658961;-69
2022/02/01 02:03:58;;;;;;;92.23;24.03;;;-0.10;69.90;;;;;;4351510;28;658790;-69
2022/02/01 02:06:46;;;;;;;86.00;24.73;;;-0.10;99.90;;;;;;4354533;28;659055;-70
2022/02/01 02:09:33;;;;;;;92.53;24.87;;;-0.10;99.90;;;;;;4376611;28;661044;-69
2022/02/01 02:12:40;;;;;;;84.20;24.67;;;-0.10;99.90;;;;;;4475086;27;659550;-69
2022/02/01 02:15:33;;;;;;;88.90;24.80;;;-0.10;99.90;;;;;;4440927;27;659321;-69
2022/02/01 02:18:21;;;;;;;88.03;24.80;;;-0.10;99.90;;;;;;4443666;27;659594;-69
2022/02/01 02:21:10;;;;;;;93.63;24.37;;;-0.10;99.90;;;;;;4484896;27;659611;-68
2022/02/01 02:23:57;;;;;;;78.37;22.50;;;-0.10;99.90;;;;;;4464432;27;659703;-70
2022/02/01 02:26:45;;;;;;;78.90;21.90;;;-0.20;99.90;;;;;;4487727;27;658521;-68
2022/02/01 02:29:33;;;;;;;80.87;22.80;;;-0.20;99.90;;;;;;4472559;27;659307;-69
2022/02/01 02:32:21;;;;;;;72.97;20.30;;;-0.20;99.90;;;;;;4488274;27;659473;-69
2022/02/01 02:35:09;;;;;;;73.33;20.50;;;-0.20;99.90;;;;;;4493331;27;659965;-68
2022/02/01 02:37:58;;;;;;;68.53;20.43;;;-0.20;1.00;;;;;;4464713;27;659316;-69
2022/02/01 02:41:01;;;;;;;66.38;19.13;;;-0.10;1.00;;;;;;4479383;27;658636;-70
2022/02/01 02:46:54;;;;;;;68.13;18.53;;;-0.10;1.00;;;;;;4466302;27;657662;-69
2022/02/01 02:49:41;;;;;;;65.63;18.03;;;-0.10;1.00;;;;;;4468180;27;657849;-69
2022/02/01 02:52:29;;;;;;;66.73;17.30;;;-0.20;1.00;;;;;;4492380;27;657850;-69
2022/02/01 02:55:18;;;;;;;62.77;17.20;;;-0.20;99.90;;;;;;4470681;27;657924;-69
2022/02/01 02:58:06;;;;;;;56.83;16.87;;;-0.20;99.90;;;;;;4479763;27;658619;-70
2022/02/01 03:00:54;;;;;;;54.83;16.10;;;-0.20;99.90;;;;;;4490350;27;660038;-68
2022/02/01 03:03:41;;;;;;;51.97;16.57;;;-0.20;1.00;;;;;;4474874;27;658946;-69
2022/02/01 03:06:29;;;;;;;58.53;16.07;;;-0.20;1.00;;;;;;4482534;27;658298;-69
2022/02/01 03:09:18;;;;;;;61.50;17.03;;;-0.20;99.90;;;;;;4468446;27;657373;-70
2022/02/01 03:12:10;;;;;;;61.93;17.17;;;-0.20;99.90;;;;;;4483873;27;658418;-69
2022/02/01 03:15:19;;;;;;;62.80;16.87;;;-0.20;99.90;;;;;;4459954;27;659238;-70
2022/02/01 03:21:11;;;;;;;52.95;16.30;;;-0.20;99.90;;;;;;4450346;27;659108;-70
2022/02/01 03:23:58;;;;;;;60.10;17.30;;;-0.20;99.90;;;;;;4498644;27;659637;-69
2022/02/01 03:26:46;;;;;;;68.70;16.90;;;-0.20;99.90;;;;;;4475171;27;658737;-69
2022/02/01 03:29:35;;;;;;;52.83;16.50;;;-0.20;99.90;;;;;;4493206;27;660546;-69
2022/02/01 03:32:22;;;;;;;60.97;17.37;;;-0.20;99.90;;;;;;4473229;27;659841;-68
2022/02/01 03:35:10;;;;;;;66.30;17.50;;;-0.30;99.90;;;;;;4491495;27;659570;-69
2022/02/01 03:37:58;;;;;;;68.73;17.77;;;-0.30;99.90;;;;;;4465223;27;659521;-69
2022/02/01 03:40:46;;;;;;;64.87;18.40;;;-0.30;99.90;;;;;;4483446;27;658915;-70
2022/02/01 03:43:33;;;;;;;74.23;18.33;;;-0.30;99.90;;;;;;4490064;27;659430;-69
2022/02/01 03:46:22;;;;;;;79.47;19.30;;;-0.30;1.00;;;;;;4470146;27;659071;-68
2022/02/01 03:49:10;;;;;;;69.27;18.67;;;-0.30;99.90;;;;;;4492706;27;657688;-68
2022/02/01 03:51:58;;;;;;;66.30;20.03;;;-0.40;1.00;;;;;;4463679;27;659592;-69
2022/02/01 03:54:46;;;;;;;80.82;21.85;;;-0.40;1.00;;;;;;4470991;27;657553;-69
2022/02/01 03:57:34;;;;;;;76.83;22.87;;;-0.40;1.00;;;;;;4492055;27;658398;-69
2022/02/01 04:00:21;;;;;;;80.10;22.33;;;-0.40;1.00;;;;;;4469929;27;657786;-69
2022/02/01 04:03:10;;;;;;;74.40;20.43;;;-0.40;1.00;;;;;;4492225;27;658324;-70
2022/02/01 04:05:58;;;;;;;87.50;21.90;;;-0.40;1.00;;;;;;4466848;27;658071;-69
2022/02/01 04:08:45;;;;;;;80.97;22.50;;;-0.40;1.00;;;;;;4490068;27;657350;-70
2022/02/01 04:11:33;;;;;;;63.53;21.03;;;-0.40;1.00;;;;;;4469793;27;658472;-68
2022/02/01 04:14:24;;;;;;;68.73;20.77;;;-0.30;96.50;;;;;;4490163;27;657395;-70
2022/02/01 04:17:12;;;;;;;78.63;22.07;;;-0.30;99.90;;;;;;4469800;27;658527;-69
2022/02/01 04:20:01;;;;;;;62.77;18.87;;;-0.40;1.00;;;;;;4484121;27;659319;-70
2022/02/01 04:22:48;;;;;;;63.13;19.47;;;-0.40;31.80;;;;;;4465672;27;658368;-69
2022/02/01 04:25:36;;;;;;;66.90;19.47;;;-0.40;99.90;;;;;;4467106;27;659474;-69
2022/02/01 04:28:23;;;;;;;58.90;18.30;;;-0.40;99.90;;;;;;4491085;27;658936;-68
2022/02/01 04:31:11;;;;;;;65.83;17.97;;;-0.40;99.90;;;;;;4472698;27;658762;-70
2022/02/01 04:33:59;;;;;;;63.63;19.10;;;-0.40;99.90;;;;;;4489751;27;658936;-70
2022/02/01 04:36:48;;;;;;;54.67;16.67;;;-0.40;99.90;;;;;;4473298;27;658781;-69
2022/02/01 04:39:35;;;;;;;57.30;16.63;;;-0.40;99.90;;;;;;4484316;27;658886;-69
2022/02/01 04:42:23;;;;;;;55.50;15.67;;;-0.40;99.90;;;;;;4463814;27;660284;-69
2022/02/01 04:45:13;;;;;;;56.87;15.30;;;-0.50;57.10;;;;;;4466798;27;658773;-69
2022/02/01 04:48:02;;;;;;;44.33;13.77;;;-0.50;1.00;;;;;;4485837;27;659239;-70
2022/02/01 04:50:50;;;;;;;48.57;14.43;;;-0.50;1.00;;;;;;4494433;27;657763;-68
2022/02/01 04:53:39;;;;;;;58.30;15.20;;;-0.50;1.00;;;;;;4473088;27;657630;-69
2022/02/01 04:56:26;;;;;;;53.17;14.60;;;-0.50;1.00;;;;;;4471199;27;657754;-69
2022/02/01 04:59:14;;;;;;;52.77;14.30;;;-0.50;1.00;;;;;;4490084;27;658424;-69
2022/02/01 05:02:01;;;;;;;48.03;14.73;;;-0.50;1.00;;;;;;4469715;27;657543;-69
2022/02/01 05:04:49;;;;;;;46.57;13.83;;;-0.50;1.00;;;;;;4492539;27;657719;-69
2022/02/01 05:07:37;;;;;;;50.17;12.13;;;-0.50;1.00;;;;;;4476832;27;657500;-68
2022/02/01 05:10:26;;;;;;;52.47;14.00;;;-0.50;1.00;;;;;;4485530;27;657764;-69
2022/02/01 05:16:41;;;;;;;54.03;16.03;;;-0.60;1.00;;;;;;4432767;27;657713;-69
2022/02/01 05:19:45;;;;;;;54.88;16.35;;;-0.60;1.00;;;;;;4470377;27;658052;-69
2022/02/01 05:22:33;;;;;;;64.03;17.90;;;-0.60;1.00;;;;;;4449752;27;658391;-69
2022/02/01 05:25:27;;;;;;;62.20;17.50;;;-0.60;1.00;;;;;;4476679;27;657929;-70
2022/02/01 05:28:16;;;;;;;56.27;16.67;;;-0.70;1.00;;;;;;4468276;27;659710;-69
2022/02/01 05:31:04;;;;;;;56.20;16.47;;;-0.60;1.00;;;;;;4467200;27;658408;-70
2022/02/01 05:33:52;;;;;;;58.23;16.83;;;-0.60;99.90;;;;;;4469325;27;658162;-69
2022/02/01 05:36:40;;;;;;;55.30;15.47;;;-0.60;99.90;;;;;;4491191;27;658206;-68
2022/02/01 05:39:28;;;;;;;48.17;14.63;;;-0.60;99.90;;;;;;4473634;27;658426;-69
2022/02/01 05:42:19;;;;;;;60.00;15.23;;;-0.70;99.90;;;;;;4490587;27;658498;-68
2022/02/01 05:45:09;;;;;;;49.83;14.10;;;-0.60;99.90;;;;;;4462411;27;658613;-69
2022/02/01 05:47:57;;;;;;;42.70;15.10;;;-0.70;99.90;;;;;;4468082;27;659538;-69
2022/02/01 05:50:44;;;;;;;56.70;15.37;;;-0.80;1.00;;;;;;4486926;27;659233;-69
2022/02/01 05:53:32;;;;;;;61.53;15.30;;;-0.80;99.90;;;;;;4465525;27;657970;-68
2022/02/01 05:56:19;;;;;;;58.53;16.73;;;-0.80;1.00;;;;;;4484515;27;659268;-70
2022/02/01 05:59:07;;;;;;;60.17;15.87;;;-0.80;99.90;;;;;;4467492;27;658535;-69
2022/02/01 06:01:57;;;;;;;58.37;16.17;;;-0.90;1.00;;;;;;4492663;27;658602;-69
2022/02/01 06:04:45;;;;;;;62.43;19.80;;;-0.90;1.00;;;;;;4463865;27;657307;-68
2022/02/01 06:07:33;;;;;;;58.80;16.50;;;-0.80;99.90;;;;;;4474589;27;658860;-69
2022/02/01 06:10:21;;;;;;;51.55;15.25;;;-0.80;1.00;;;;;;4473076;27;658944;-69
2022/02/01 06:13:09;;;;;;;46.23;15.20;;;-0.90;99.90;;;;;;4492247;27;658221;-69
2022/02/01 06:15:56;;;;;;;37.30;11.50;;;-0.90;99.90;;;;;;4475743;27;658378;-69
2022/02/01 06:18:45;;;;;;;54.10;16.50;;;-1.00;1.00;;;;;;4488178;27;658916;-69
2022/02/01 06:21:33;;;;;;;52.57;13.93;;;-1.10;1.00;;;;;;4462105;27;658457;-69
2022/02/01 06:24:22;;;;;;;58.90;17.13;;;-1.20;1.00;;;;;;4485746;27;657846;-69
2022/02/01 06:27:09;;;;;;;60.57;17.67;;;-1.10;99.90;;;;;;4497462;27;658406;-69
2022/02/01 06:29:57;;;;;;;67.63;17.03;;;-1.20;99.90;;;;;;4476495;27;658853;-69
2022/02/01 06:32:44;;;;;;;50.10;16.27;;;-1.20;99.90;;;;;;4495999;27;659185;-68
2022/02/01 06:35:33;;;;;;;59.83;17.43;;;-1.20;99.90;;;;;;4475057;27;658551;-69
2022/02/01 06:38:21;;;;;;;37.17;13.15;;;-1.30;58.80;;;;;;4478460;27;658658;-69
2022/02/01 06:41:09;;;;;;;48.17;16.77;;;-1.30;1.00;;;;;;4497444;27;659767;-69
2022/02/01 06:43:56;;;;;;;49.67;15.47;;;-1.20;81.90;;;;;;4475495;27;657548;-69
2022/02/01 06:46:44;;;;;;;33.73;10.73;;;-1.20;99.90;;;;;;4496635;27;659306;-69
2022/02/01 06:49:31;;;;;;;56.97;17.07;;;-1.20;1.00;;;;;;4479648;27;659251;-69
2022/02/01 06:52:21;;;;;;;54.10;16.97;;;-1.20;1.00;;;;;;4498179;27;658705;-69
2022/02/01 06:55:12;;;;;;;50.77;16.83;;;-1.10;99.90;;;;;;4471815;27;657959;-69
2022/02/01 06:57:59;;;;;;;63.63;17.67;;;-1.00;1.00;;;;;;4467789;27;659099;-69
2022/02/01 07:00:47;;;;;;;51.67;16.93;;;-1.00;1.00;;;;;;4470887;27;657880;-69
2022/02/01 07:03:35;;;;;;;45.87;15.20;;;-1.00;99.90;;;;;;4496470;27;657235;-68
2022/02/01 07:06:22;;;;;;;68.13;16.90;;;-0.90;1.00;;;;;;4466378;27;658695;-68
2022/02/01 07:09:11;;;;;;;71.72;18.17;;;-0.90;99.90;;;;;;4488795;27;657878;-68
2022/02/01 07:11:59;;;;;;;57.00;18.50;;;-0.80;81.30;;;;;;4469158;27;659688;-69
2022/02/01 07:14:46;;;;;;;54.50;18.27;;;-0.80;1.00;;;;;;4466127;27;658408;-69
2022/02/01 07:17:34;;;;;;;61.67;16.37;;;-0.80;1.00;;;;;;4492069;27;658417;-68
2022/02/01 07:20:22;;;;;;;50.40;16.83;;;-0.70;1.00;;;;;;4464832;27;657832;-68
2022/02/01 07:23:12;;;;;;;59.13;15.67;;;-0.70;1.00;;;;;;4479744;27;657843;-68
2022/02/01 07:26:01;;;;;;;64.23;18.37;;;-0.60;1.00;;;;;;4466428;27;658079;-69
2022/02/01 07:28:49;;;;;;;67.07;19.00;;;-0.60;99.90;;;;;;4467504;27;658769;-68
2022/02/01 07:31:37;;;;;;;52.87;15.33;;;-0.60;1.00;;;;;;4465145;27;658624;-68
2022/02/01 07:34:24;;;;;;;59.10;19.03;;;-0.60;99.90;;;;;;4492208;27;659422;-68
2022/02/01 07:37:12;;;;;;;63.90;18.80;;;-0.50;99.90;;;;;;4473410;27;658822;-68
2022/02/01 07:40:01;;;;;;;73.10;18.60;;;-0.40;99.90;;;;;;4485762;27;659771;-68
2022/02/01 07:42:50;;;;;;;57.67;18.87;;;-0.40;99.90;;;;;;4467414;27;660409;-68
2022/02/01 07:45:40;;;;;;;65.45;19.02;;;-0.40;99.90;;;;;;4466367;27;660200;-68
2022/02/01 07:48:28;;;;;;;64.77;18.43;;;-0.50;99.90;;;;;;4471519;27;660448;-70
2022/02/01 07:51:16;;;;;;;56.73;19.13;;;-0.40;99.90;;;;;;4493633;27;658550;-69
2022/02/01 07:54:03;;;;;;;56.97;18.20;;;-0.40;99.90;;;;;;4485732;27;659449;-69
2022/02/01 07:56:51;;;;;;;71.30;21.43;;;-0.40;99.90;;;;;;4465743;27;658748;-69
2022/02/01 07:59:40;;;;;;;75.03;22.37;;;-0.40;99.90;;;;;;4490839;27;658607;-68
2022/02/01 08:02:28;;;;;;;55.23;21.13;;;-0.40;99.90;;;;;;4466274;27;659553;-68
2022/02/01 08:05:16;;;;;;;67.20;22.50;;;-0.30;99.90;;;;;;4489495;27;658335;-70
2022/02/01 08:08:04;;;;;;;64.97;22.43;;;-0.30;99.90;;;;;;4497538;27;659777;-68
2022/02/01 08:10:54;;;;;;;64.27;22.60;;;-0.20;1.00;;;;;;4472959;27;658582;-70
2022/02/01 08:16:56;;;;;;;67.97;21.37;;;-0.10;1.00;;;;;;4449878;27;658411;-69
2022/02/01 08:19:56;;;;;;;62.90;21.90;;;-0.10;99.90;;;;;;4451733;27;657856;-69
2022/02/01 08:23:01;;;;;;;64.97;20.37;;;0.10;1.00;;;;;;4467265;27;659240;-68
2022/02/01 08:25:50;;;;;;;66.25;21.42;;;0.10;1.00;;;;;;4458273;27;657928;-68
2022/02/01 08:28:37;;;;;;;67.33;18.90;;;0.10;1.00;;;;;;4467071;27;657290;-68
2022/02/01 08:31:25;;;;;;;59.20;18.60;;;0.00;1.00;;;;;;4491564;27;657072;-68
2022/02/01 08:34:14;;;;;;;53.90;18.00;;;0.10;1.00;;;;;;4461532;27;657870;-68
2022/02/01 08:37:02;;;;;;;53.93;17.10;;;0.30;1.00;;;;;;4473064;27;658088;-69
2022/02/01 08:39:49;;;;;;;41.60;14.97;;;0.40;1.00;;;;;;4489179;27;658214;-69
2022/02/01 08:42:37;;;;;;;50.63;16.13;;;0.40;99.90;;;;;;4471004;27;656752;-69
2022/02/01 08:45:26;;;;;;;58.00;14.93;;;0.30;99.90;;;;;;4479327;27;657671;-68
2022/02/01 08:48:14;;;;;;;42.43;14.10;;;0.50;1.00;;;;;;4463018;27;658495;-68
2022/02/01 08:51:07;;;;;;;30.17;10.80;;;0.80;99.90;;;;;;4471053;27;656980;-70
2022/02/01 08:53:58;;;;;;;42.70;11.67;;;1.00;99.90;;;;;;4462340;27;657570;-69
2022/02/01 08:59:52;;;;;;;30.40;10.77;;;1.30;99.90;;;;;;4444932;27;657739;-70
2022/02/01 09:02:40;;;;;;;38.17;12.37;;;1.60;1.00;;;;;;4484136;27;657777;-69
2022/02/01 09:05:28;;;;;;;35.27;12.40;;;1.90;1.00;;;;;;4463622;27;656919;-71
2022/02/01 09:08:17;;;;;;;42.13;13.33;;;2.10;1.00;;;;;;4489567;27;656444;-70
2022/02/01 09:11:06;;;;;;;33.27;14.17;;;2.10;20.00;;;;;;4487450;27;657007;-69
2022/02/01 09:13:54;;;;;;;34.00;12.00;;;2.00;98.60;;;;;;4465118;27;658118;-70
2022/02/01 09:16:42;;;;;;;36.93;13.33;;;2.00;99.90;;;;;;4468803;27;657910;-70
2022/02/01 09:19:29;;;;;;;37.93;13.33;;;2.10;99.30;;;;;;4487342;27;658527;-70
2022/02/01 09:22:17;;;;;;;48.30;14.90;;;2.10;98.90;;;;;;4469279;27;658395;-69
2022/02/01 09:25:08;;;;;;;38.33;12.87;;;1.90;98.60;;;;;;4493917;27;658559;-69
2022/02/01 09:27:56;;;;;;;29.77;10.20;;;1.70;96.90;;;;;;4452150;27;657606;-69
2022/02/01 09:30:44;;;;;;;37.40;11.07;;;1.50;99.90;;;;;;4496043;27;658713;-69
2022/02/01 09:33:31;;;;;;;33.80;10.03;;;1.40;99.90;;;;;;4473450;27;658082;-70
2022/02/01 09:36:22;;;;;;;36.67;11.80;;;1.50;99.90;;;;;;4487737;27;658839;-70
2022/02/01 09:39:09;;;;;;;21.27;7.07;;;1.40;99.00;;;;;;4464089;27;658529;-69
2022/02/01 09:41:59;;;;;;;27.20;8.13;;;1.30;96.00;;;;;;4469110;27;656657;-70
2022/02/01 09:44:48;;;;;;;29.57;7.30;;;1.10;97.60;;;;;;4472774;27;656708;-69
2022/02/01 09:47:37;;;;;;;30.70;9.63;;;1.10;94.90;;;;;;4471604;27;656244;-70
2022/02/01 09:50:25;;;;;;;29.47;8.87;;;1.00;96.70;;;;;;4490882;27;657529;-70
2022/02/01 09:53:12;;;;;;;30.10;9.57;;;1.10;95.90;;;;;;4466147;27;657281;-69
2022/02/01 09:56:00;;;;;;;30.27;9.57;;;1.40;96.30;;;;;;4493703;27;656300;-70
2022/02/01 09:58:54;;;;;;;22.67;7.70;;;1.50;94.00;;;;;;4468928;27;656809;-70
2022/02/01 10:01:44;;;;;;;19.60;7.90;;;1.60;93.80;;;;;;4452708;27;657667;-70
2022/02/01 10:04:31;;;;;;;24.83;8.13;;;1.80;92.10;;;;;;4474477;27;656450;-68
2022/02/01 10:07:20;;;;;;;26.37;8.87;;;1.90;88.70;;;;;;4495288;27;657327;-70
2022/02/01 10:10:08;;;;;;;27.60;8.20;;;1.70;90.90;;;;;;4471897;27;656289;-69
2022/02/01 10:12:58;;;;;;;21.30;5.63;;;1.60;92.00;;;;;;4479122;27;657536;-70
2022/02/01 10:15:58;;;;;;;27.53;10.20;;;1.50;92.10;;;;;;4472288;27;656912;-69
2022/02/01 10:18:46;;;;;;;45.37;13.73;;;1.60;94.80;;;;;;4443331;27;658117;-69
2022/02/01 10:21:34;;;;;;;34.00;10.20;;;1.80;95.20;;;;;;4491315;27;657144;-69
2022/02/01 10:24:31;;;;;;;34.73;10.10;;;1.80;96.90;;;;;;4469948;27;657614;-69
2022/02/01 10:27:20;;;;;;;37.20;10.40;;;1.70;98.60;;;;;;4441473;27;658844;-70
2022/02/01 10:30:12;;;;;;;36.03;10.80;;;1.60;99.90;;;;;;4466730;27;658704;-70
2022/02/01 10:36:02;;;;;;;27.47;8.20;;;1.70;97.50;;;;;;4468917;27;657352;-71
2022/02/01 10:38:50;;;;;;;28.97;9.33;;;1.70;91.70;;;;;;4490931;27;657318;-71
2022/02/01 10:41:38;;;;;;;22.57;7.03;;;1.70;90.10;;;;;;4464994;27;657003;-69
2022/02/01 10:44:37;;;;;;;28.08;9.93;;;1.70;89.50;;;;;;4470910;27;656435;-69
2022/02/01 10:47:35;;;;;;;30.53;9.17;;;1.70;92.10;;;;;;4469544;27;656967;-70
2022/02/01 10:50:27;;;;;;;26.47;8.30;;;1.80;92.80;;;;;;4464229;27;656738;-69
2022/02/01 10:53:18;;;;;;;33.28;9.02;;;1.70;92.60;;;;;;4467028;27;656849;-69
2022/02/01 10:56:07;;;;;;;24.30;8.50;;;1.60;95.70;;;;;;4451495;27;657402;-71
2022/02/01 10:58:55;;;;;;;16.50;6.70;;;1.40;98.80;;;;;;4494112;27;656866;-69
2022/02/01 11:01:42;;;;;;;32.17;10.40;;;1.30;99.90;;;;;;4475671;27;657410;-72
2022/02/01 11:04:31;;;;;;;23.07;9.20;;;1.30;99.90;;;;;;4491523;27;657674;-70
2022/02/01 11:07:21;;;;;;;26.07;9.67;;;1.20;99.90;;;;;;4468328;27;657311;-70
2022/02/01 11:10:09;;;;;;;26.27;8.40;;;1.30;99.90;;;;;;4471494;27;658550;-69
2022/02/01 11:13:04;;;;;;;23.43;6.80;;;1.30;99.90;;;;;;4473599;27;656443;-71
2022/02/01 11:15:56;;;;;;;20.30;7.10;;;1.10;99.90;;;;;;4445901;27;657552;-69
2022/02/01 11:18:54;;;;;;;20.77;6.80;;;0.90;99.90;;;;;;4471817;27;657270;-69
2022/02/01 11:21:46;;;;;;;33.28;12.50;;;0.80;99.90;;;;;;4448758;27;657086;-69
2022/02/01 11:24:37;;;;;;;32.15;13.40;;;0.80;99.90;;;;;;4464917;27;658363;-69
2022/02/01 11:27:38;;;;;;;28.53;10.97;;;0.80;99.90;;;;;;4469229;27;657199;-69
2022/02/01 11:30:33;;;;;;;41.87;14.37;;;0.70;99.90;;;;;;4452557;27;657284;-70
2022/02/01 11:33:21;;;;;;;31.67;10.45;;;0.70;99.90;;;;;;4448017;27;657503;-70
2022/02/01 11:36:09;;;;;;;32.63;12.67;;;0.70;99.90;;;;;;4501152;27;659386;-69
2022/02/01 11:38:58;;;;;;;43.07;15.93;;;0.70;99.90;;;;;;4475125;27;658170;-69
2022/02/01 11:41:47;;;;;;;34.83;15.90;;;0.60;99.90;;;;;;4477868;27;657546;-70
2022/02/01 11:44:35;;;;;;;39.63;15.40;;;0.40;99.90;;;;;;4492852;27;658376;-69
2022/02/01 11:47:23;;;;;;;34.53;14.43;;;0.50;99.90;;;;;;4470864;27;658958;-69
2022/02/01 11:50:12;;;;;;;32.20;12.47;;;0.40;99.90;;;;;;4490108;27;657546;-70
2022/02/01 11:53:02;;;;;;;31.47;10.47;;;0.30;99.90;;;;;;4511894;27;657415;-70
2022/02/01 11:55:51;;;;;;;38.43;12.60;;;0.20;99.90;;;;;;4492843;27;657569;-70
2022/02/01 11:58:41;;;;;;;29.27;10.97;;;0.30;99.90;;;;;;4477222;27;657764;-69
2022/02/01 12:01:31;;;;;;;30.97;10.83;;;0.30;99.90;;;;;;4471913;27;657636;-70
2022/02/01 12:04:19;;;;;;;12.00;5.60;;;0.20;99.90;;;;;;4467944;27;660101;-70
2022/02/01 12:07:08;;;;;;;25.30;9.50;;;0.20;99.90;;;;;;4475264;27;657732;-70
2022/02/01 12:09:56;;;;;;;30.80;10.43;;;0.20;99.90;;;;;;4496590;27;656451;-70
2022/02/01 12:12:43;;;;;;;22.47;8.37;;;0.20;99.90;;;;;;4482590;27;658812;-70
2022/02/01 12:15:33;;;;;;;28.23;9.27;;;0.20;99.90;;;;;;4476000;27;656502;-69
2022/02/01 12:18:29;;;;;;;23.30;7.03;;;0.30;99.90;;;;;;4475106;27;656692;-71
2022/02/01 12:21:28;;;;;;;25.97;8.60;;;0.30;99.90;;;;;;4452599;27;657382;-70
2022/02/01 12:24:16;;;;;;;30.93;10.33;;;0.30;99.90;;;;;;4468393;27;656411;-70
2022/02/01 12:27:04;;;;;;;22.50;6.87;;;0.20;99.90;;;;;;4493919;27;658231;-70
2022/02/01 12:29:59;;;;;;;30.27;11.27;;;0.30;99.90;;;;;;4475644;27;656607;-70
2022/02/01 12:32:52;;;;;;;31.97;10.10;;;0.20;99.90;;;;;;4469409;27;658544;-70
2022/02/01 12:35:41;;;;;;;24.53;8.50;;;0.20;99.90;;;;;;4465565;27;657809;-69
2022/02/01 12:38:30;;;;;;;29.00;8.27;;;0.20;99.90;;;;;;4469899;27;657484;-70
2022/02/01 12:41:20;;;;;;;35.10;11.47;;;0.10;99.90;;;;;;4463827;27;656797;-70
2022/02/01 12:47:22;;;;;;;33.03;8.97;;;0.10;99.90;;;;;;4434264;27;657825;-71
2022/02/01 12:50:14;;;;;;;34.77;11.40;;;0.10;99.90;;;;;;4491058;27;656723;-70
2022/02/01 12:53:04;;;;;;;25.00;7.37;;;0.10;99.90;;;;;;4439059;27;657876;-70
2022/02/01 12:55:52;;;;;;;27.53;8.37;;;0.10;99.90;;;;;;4474266;27;656807;-69
2022/02/01 12:58:40;;;;;;;30.43;11.43;;;0.10;99.90;;;;;;4495164;27;656483;-70
2022/02/01 13:01:31;;;;;;;23.47;8.27;;;0.10;99.90;;;;;;4475943;27;658121;-70
2022/02/01 13:04:23;;;;;;;30.93;7.90;;;0.20;99.90;;;;;;4463794;27;657262;-69
2022/02/01 13:07:22;;;;;;;34.07;10.20;;;0.20;99.90;;;;;;4465723;27;657294;-70
2022/02/01 13:16:25;;;;;;;35.60;9.33;;;0.30;99.90;;;;;;4436233;27;659142;-69
2022/02/01 13:22:21;;;;;;;31.27;10.27;;;0.30;99.90;;;;;;4465991;27;656713;-69
2022/02/01 13:25:10;;;;;;;24.80;8.67;;;0.30;99.90;;;;;;4474246;27;658314;-69
2022/02/01 13:27:58;;;;;;;12.95;5.90;;;0.30;99.90;;;;;;4484056;27;658095;-69
2022/02/01 13:30:46;;;;;;;22.70;8.23;;;0.30;99.90;;;;;;4473528;27;657161;-70
2022/02/01 13:33:35;;;;;;;20.70;7.00;;;0.30;99.90;;;;;;4495133;27;657422;-70
2022/02/01 13:36:22;;;;;;;29.43;11.40;;;0.30;99.90;;;;;;4469127;27;656515;-69
2022/02/01 13:39:22;;;;;;;35.63;12.80;;;0.30;99.90;;;;;;4501216;27;657970;-69
2022/02/01 13:42:11;;;;;;;25.47;8.67;;;0.20;99.90;;;;;;4478457;27;657831;-69
2022/02/01 13:44:59;;;;;;;34.33;12.43;;;0.20;99.90;;;;;;4477282;27;656977;-69
2022/02/01 13:47:49;;;;;;;39.87;14.43;;;0.30;99.90;;;;;;4477010;27;658153;-69
2022/02/01 13:50:37;;;;;;;40.87;14.67;;;0.30;99.90;;;;;;4467541;27;657718;-70
2022/02/01 13:53:25;;;;;;;26.83;10.40;;;0.30;99.90;;;;;;4491756;27;657570;-70
2022/02/01 13:56:14;;;;;;;41.33;14.47;;;0.30;99.90;;;;;;4470871;27;657963;-69
2022/02/01 13:59:09;;;;;;;42.10;17.40;;;0.30;99.90;;;;;;4487484;27;657831;-70
2022/02/01 14:02:03;;;;;;;38.47;13.73;;;0.30;99.90;;;;;;4451275;27;657816;-70
2022/02/01 14:04:53;;;;;;;36.50;10.10;;;0.40;99.90;;;;;;4459954;27;657878;-71
2022/02/01 14:07:56;;;;;;;37.30;13.43;;;0.40;99.90;;;;;;4480005;27;658339;-70
2022/02/01 14:10:51;;;;;;;47.53;15.57;;;0.40;99.90;;;;;;4470797;27;657644;-69
2022/02/01 14:32:51;;;;;;;44.07;15.43;;;0.50;99.90;;;;;;4414956;27;657824;-69
2022/02/01 14:35:32;;;;;;;33.90;12.73;;;0.50;99.90;;;;;;4466082;27;657883;-70
2022/02/01 14:44:41;;;;;;;36.80;14.40;;;0.50;99.90;;;;;;4467174;27;657886;-69
2022/02/01 14:47:29;;;;;;;34.33;13.23;;;0.60;99.90;;;;;;4462479;27;658057;-69
2022/02/01 14:50:17;;;;;;;25.47;10.57;;;0.60;99.90;;;;;;4471556;27;658332;-70
2022/02/01 14:53:04;;;;;;;35.20;13.60;;;0.70;99.90;;;;;;4486449;27;656963;-70
2022/02/01 14:55:57;;;;;;;32.30;12.80;;;0.70;99.90;;;;;;4463674;27;657298;-69
2022/02/01 15:05:14;;;;;;;37.92;12.75;;;0.70;99.90;;;;;;4444625;27;657749;-70
2022/02/01 15:11:25;;;;;;;30.43;12.07;;;0.70;99.90;;;;;;4450066;27;656584;-71
2022/02/01 15:14:13;;;;;;;25.13;9.97;;;0.70;99.90;;;;;;4442296;27;659195;-71
2022/02/01 15:17:06;;;;;;;26.40;11.70;;;0.70;99.90;;;;;;4482562;27;656504;-71
2022/02/01 15:19:54;;;;;;;28.10;12.27;;;0.70;99.90;;;;;;4426495;27;657784;-71
2022/02/01 15:22:43;;;;;;;33.50;11.67;;;0.70;99.90;;;;;;4472509;27;657416;-70
2022/02/01 15:25:31;;;;;;;32.23;11.73;;;0.70;99.90;;;;;;4486041;27;657591;-71
2022/02/01 15:28:19;;;;;;;27.97;11.80;;;0.70;99.90;;;;;;4486518;27;657717;-71
2022/02/01 15:31:06;;;;;;;31.10;12.10;;;0.60;99.90;;;;;;4465631;27;657310;-71
2022/02/01 15:33:55;;;;;;;38.80;12.83;;;0.60;99.90;;;;;;4495060;27;657317;-71
2022/02/01 15:36:43;;;;;;;28.95;12.10;;;0.60;99.90;;;;;;4468628;27;658681;-71
2022/02/01 15:55:54;;;;;;;25.27;10.27;;;0.50;99.90;;;;;;4429604;28;658244;-71
2022/02/01 15:58:42;;;;;;;29.77;10.90;;;0.50;99.90;;;;;;4400527;28;659566;-71
2022/02/01 16:01:40;;;;;;;35.50;13.90;;;0.60;99.90;;;;;;4426293;28;657337;-71
2022/02/01 16:04:29;;;;;;;38.17;14.60;;;0.60;99.90;;;;;;4424490;28;657802;-71
2022/02/01 16:07:17;;;;;;;35.77;13.00;;;0.60;99.90;;;;;;4428658;28;657625;-71
2022/02/01 16:10:13;;;;;;;37.17;13.77;;;0.50;99.90;;;;;;4449362;28;657716;-71
2022/02/01 16:13:06;;;;;;;39.93;15.53;;;0.50;99.90;;;;;;4414557;28;657711;-71
2022/02/01 16:15:54;;;;;;;35.00;13.83;;;0.50;99.90;;;;;;4423460;28;658792;-71
2022/02/01 16:18:43;;;;;;;38.03;15.60;;;0.50;99.90;;;;;;4424352;28;657621;-71
2022/02/01 16:21:32;;;;;;;23.70;10.07;;;0.40;99.90;;;;;;4446477;28;658315;-71
2022/02/01 16:24:20;;;;;;;39.57;10.60;;;0.40;99.90;;;;;;4463844;27;658946;-71
2022/02/01 16:27:08;;;;;;;34.07;13.23;;;0.40;99.90;;;;;;4470273;27;657949;-71
2022/02/01 16:30:07;;;;;;;36.20;14.60;;;0.40;99.90;;;;;;4491621;27;657996;-71
2022/02/01 16:32:55;;;;;;;40.70;15.67;;;0.40;99.90;;;;;;4462453;27;657841;-71
2022/02/01 16:35:43;;;;;;;33.33;11.83;;;0.30;99.90;;;;;;4468956;27;659079;-74
2022/02/01 16:38:32;;;;;;;48.50;17.57;;;0.40;99.90;;;;;;4488147;27;658079;-73
2022/02/01 16:41:20;;;;;;;38.87;14.43;;;0.30;99.90;;;;;;4467394;27;658344;-74